Latest Weather Observations for Mandurah

IDW60901

Issued at 7:51 am WST Monday 20 November 2017 (issued every 10 minutes, with the page automatically refreshed every 10 minutes)

About weather observations | Map of Perth area stations | Latest observations for Perth area | Other Formats
Station Details ID: 009977 Name: MANDURAH Lat: -32.52 Lon: 115.71 Height: 3.0 m
Data from the previous 72 hours. | See also: Recent months at Mandurah
Date/Time
WST
Temp
°C
App
Temp
°C
Dew
Point
°C
Rel
Hum
%
Delta-T
°C
Wind Press
QNH
hPa
Press
MSL
hPa
Rain since
9am
mm
Dir  Spd
km/h
Gust
km/h
Spd
kts
Gust
kts
20/07:30am 17.7 17.8 10.3 62 3.9 CALM 0 4 0 2 1014.5 1014.5 0.0
20/07:00am 17.0 16.9 10.8 67 3.3 SE 2 4 1 2 1014.2 1014.2 0.0
20/06:30am 16.1 16.3 10.6 70 2.9 CALM 0 0 0 0 1014.1 1014.1 0.0
20/06:00am 15.5 15.7 10.7 73 2.5 CALM 0 0 0 0 1014.0 1014.0 0.0
20/05:30am 14.9 15.0 10.1 73 2.5 CALM 0 4 0 2 1013.7 1013.7 0.0
20/05:00am 15.0 14.0 10.4 74 2.4 ESE 6 7 3 4 1013.3 1013.3 0.0
20/04:30am 14.8 14.1 10.0 73 2.5 ESE 4 6 2 3 1012.9 1012.9 0.0
20/04:00am 15.2 14.5 10.2 72 2.6 ESE 4 6 2 3 1012.9 1012.9 0.0
20/03:30am 15.0 13.9 10.0 72 2.6 ESE 6 7 3 4 1012.9 1012.9 0.0
20/03:00am 15.3 14.3 10.3 72 2.6 ESE 6 7 3 4 1012.9 1012.9 0.0
20/02:30am 15.4 14.2 10.2 71 2.7 ESE 7 11 4 6 1012.8 1012.8 0.0
20/02:00am 15.4 14.7 10.2 71 2.7 SE 4 7 2 4 1012.8 1012.8 0.0
20/01:30am 15.9 15.3 10.4 70 2.9 SSE 4 6 2 3 1012.9 1012.9 0.0
20/01:00am 17.2 16.0 9.4 60 4.1 SSW 6 9 3 5 1013.2 1013.2 0.0
20/12:30am 17.2 15.9 10.1 63 3.8 SSW 7 13 4 7 1013.4 1013.4 0.0
20/12:00am 17.1 16.1 10.2 64 3.7 S 6 9 3 5 1013.3 1013.3 0.0
 
Date/Time
WST
Temp
°C
App
Temp
°C
Dew
Point
°C
Rel
Hum
%
Delta-T
°C
Wind Press
QNH
hPa
Press
MSL
hPa
Rain since
9am
mm
Dir  Spd
km/h
Gust
km/h
Spd
kts
Gust
kts
19/11:30pm 17.0 16.1 10.6 66 3.4 SSW 6 7 3 4 1013.7 1013.7 0.0
19/11:00pm 17.3 16.4 10.7 65 3.5 SSW 6 7 3 4 1013.9 1013.9 0.0
19/10:30pm 17.3 16.1 10.4 64 3.7 SSW 7 11 4 6 1014.1 1014.1 0.0
19/10:00pm 17.4 16.3 10.5 64 3.7 SSW 7 13 4 7 1014.2 1014.2 0.0
19/09:30pm 17.5 16.0 10.4 63 3.8 SSW 9 13 5 7 1014.6 1014.6 0.0
19/09:00pm 17.5 16.6 10.6 64 3.7 SW 6 9 3 5 1014.8 1014.8 0.0
19/08:30pm 17.9 16.8 10.5 62 4.0 SSW 7 11 4 6 1014.8 1014.8 0.0
19/08:00pm 18.0 16.9 10.6 62 4.0 SSW 7 13 4 7 1014.6 1014.6 0.0
19/07:30pm 17.9 16.8 10.5 62 4.0 SW 7 11 4 6 1014.3 1014.3 0.0
19/07:00pm 18.4 17.0 10.8 61 4.1 SSW 9 15 5 8 1013.9 1013.9 0.0
19/06:30pm 19.0 17.2 10.8 59 4.4 SSW 11 19 6 10 1013.3 1013.3 0.0
19/06:00pm 19.4 17.2 10.9 58 4.6 SSW 13 20 7 11 1013.1 1013.1 0.0
19/05:30pm 19.7 17.5 10.9 57 4.8 SSW 13 20 7 11 1012.9 1012.9 0.0
19/05:00pm 20.4 18.3 11.3 56 5.0 SSW 13 22 7 12 1013.1 1013.1 0.0
19/04:30pm 20.9 18.6 11.8 56 5.1 SSW 15 24 8 13 1013.0 1013.0 0.0
19/04:00pm 21.1 18.0 12.3 57 5.0 SW 20 32 11 17 1013.0 1013.0 0.0
19/03:30pm 21.4 18.5 12.8 58 4.9 SW 20 32 11 17 1013.0 1013.0 0.0
19/03:00pm 21.0 18.0 12.4 58 4.8 WSW 20 32 11 17 1013.0 1013.0 0.0
19/02:30pm 22.1 19.8 12.9 56 5.3 SW 17 28 9 15 1013.4 1013.4 0.0
19/02:00pm 21.5 18.5 12.4 56 5.1 SW 20 30 11 16 1013.8 1013.8 0.0
19/01:30pm 21.7 19.3 12.8 57 5.1 WSW 17 24 9 13 1014.1 1014.1 0.0
19/01:00pm 21.7 19.1 13.3 59 4.8 WSW 19 28 10 15 1014.1 1014.1 0.0
19/12:30pm 21.2 18.5 12.9 59 4.7 SW 19 24 10 13 1014.2 1014.2 0.0
19/12:00pm 21.2 18.6 13.1 60 4.6 WSW 19 28 10 15 1014.3 1014.3 0.0
19/11:30am 21.2 19.0 13.4 61 4.5 WSW 17 26 9 14 1014.3 1014.3 0.0
19/11:00am 21.5 20.4 14.2 63 4.3 WSW 13 20 7 11 1014.3 1014.3 0.0
19/10:30am 20.6 19.0 13.8 65 3.9 WSW 15 20 8 11 1014.2 1014.2 0.0
19/10:00am 20.7 19.1 13.9 65 3.9 WSW 15 20 8 11 1014.1 1014.1 0.0
19/09:30am 20.1 19.2 13.8 67 3.6 WSW 11 19 6 10 1014.0 1014.0 0.0
19/09:00am 19.8 19.7 14.0 69 3.3 WNW 7 9 4 5 1013.8 1013.8 0.0
19/08:30am 19.8 20.4 14.2 70 3.2 S 4 7 2 4 1014.0 1014.0 0.0
19/08:00am 19.5 19.9 14.7 74 2.8 ESE 6 9 3 5 1014.2 1014.2 0.0
19/07:30am 18.4 18.7 14.5 78 2.3 SE 6 11 3 6 1014.0 1014.0 0.0
19/07:00am 18.1 17.8 14.4 79 2.1 SSE 9 15 5 8 1013.7 1013.7 0.0
19/06:30am 17.8 17.2 14.5 81 1.9 S 11 19 6 10 1013.4 1013.4 0.0
19/06:00am 17.6 16.6 14.5 82 1.8 S 13 19 7 10 1013.4 1013.4 0.0
19/05:30am 17.3 16.6 14.2 82 1.8 S 11 17 6 9 1013.1 1013.1 0.0
19/05:00am 17.4 16.8 14.5 83 1.7 S 11 15 6 8 1012.8 1012.8 0.0
19/04:30am 17.3 16.9 14.2 82 1.8 SSE 9 15 5 8 1012.5 1012.5 0.0
19/04:00am 17.6 16.4 13.9 79 2.1 SSE 13 19 7 10 1012.3 1012.3 0.0
19/03:30am 17.7 16.1 13.8 78 2.2 S 15 20 8 11 1012.0 1012.0 0.0
19/03:00am 17.7 17.7 14.2 80 2.0 S 7 13 4 7 1012.0 1012.0 0.0
19/02:30am 17.6 16.8 13.9 79 2.1 S 11 17 6 9 1012.1 1012.1 0.0
19/02:00am 17.8 16.6 13.9 78 2.2 SSW 13 19 7 10 1012.4 1012.4 0.0
19/01:30am 18.1 16.8 13.8 76 2.4 SSW 13 20 7 11 1012.7 1012.7 0.0
19/01:00am 17.9 17.0 13.6 76 2.4 SSW 11 17 6 9 1012.9 1012.9 0.0
19/12:30am 17.9 17.4 13.8 77 2.3 SSW 9 17 5 9 1013.1 1013.1 0.0
19/12:00am 18.1 17.2 13.8 76 2.4 SSW 11 20 6 11 1013.3 1013.3 0.0
 
Date/Time
WST
Temp
°C
App
Temp
°C
Dew
Point
°C
Rel
Hum
%
Delta-T
°C
Wind Press
QNH
hPa
Press
MSL
hPa
Rain since
9am
mm
Dir  Spd
km/h
Gust
km/h
Spd
kts
Gust
kts
18/11:30pm 18.2 17.0 13.9 76 2.5 SSW 13 20 7 11 1013.5 1013.5 0.0
18/11:00pm 18.6 17.9 14.3 76 2.5 SW 11 19 6 10 1013.8 1013.8 0.0
18/10:30pm 18.7 17.9 14.0 74 2.7 SW 11 19 6 10 1013.8 1013.8 0.0
18/10:00pm 18.5 16.9 14.0 75 2.6 SW 15 24 8 13 1013.8 1013.8 0.0
18/09:30pm 18.7 17.6 14.2 75 2.6 SSW 13 20 7 11 1013.5 1013.5 0.0
18/09:00pm 19.0 17.9 14.3 74 2.7 SW 13 22 7 12 1013.1 1013.1 0.0
18/08:30pm 19.1 17.7 14.4 74 2.7 SSW 15 20 8 11 1012.6 1012.6 0.0
18/08:00pm 19.3 18.6 14.3 73 2.9 SSW 11 19 6 10 1012.3 1012.3 0.0
18/07:30pm 19.4 18.3 14.2 72 3.0 SW 13 22 7 12 1011.8 1011.8 0.0
18/07:00pm 19.5 18.0 14.1 71 3.1 SW 15 20 8 11 1011.6 1011.6 0.0
18/06:30pm 19.9 18.4 14.3 70 3.2 SW 15 22 8 12 1011.2 1011.2 0.0
18/06:00pm 20.2 18.6 13.9 67 3.6 SW 15 20 8 11 1010.8 1010.8 0.0
18/05:30pm 20.6 19.0 14.0 66 3.8 SW 15 20 8 11 1010.3 1010.3 0.0
18/05:00pm 20.9 18.9 13.8 64 4.1 WSW 17 24 9 13 1010.0 1010.0 0.0
18/04:30pm 21.6 20.0 14.0 62 4.4 WSW 15 22 8 12 1009.9 1009.9 0.0
18/04:00pm 21.7 19.8 14.1 62 4.4 WSW 17 24 9 13 1009.6 1009.6 0.0
18/03:30pm 21.4 19.2 14.3 64 4.1 W 19 26 10 14 1009.3 1009.3 0.0
18/03:00pm 21.2 19.5 14.8 67 3.8 W 17 24 9 13 1009.3 1009.3 0.0
18/02:30pm 22.1 19.7 14.5 62 4.5 WSW 20 28 11 15 1009.4 1009.4 0.0
18/02:00pm 22.1 19.9 14.5 62 4.5 WSW 19 28 10 15 1009.2 1009.2 0.0
18/01:30pm 21.4 18.7 14.6 65 4.0 W 22 30 12 16 1009.0 1009.0 0.0
18/01:00pm 21.6 19.6 15.0 66 3.9 W 19 28 10 15 1008.7 1008.7 0.0
18/12:30pm 21.2 19.8 15.5 70 3.4 W 17 20 9 11 1008.7 1008.7 0.0
18/12:00pm 20.7 19.2 15.3 71 3.2 WNW 17 22 9 12 1008.6 1008.6 0.0
18/11:30am 20.4 18.5 15.2 72 3.1 W 19 24 10 13 1008.5 1008.5 0.0
18/11:00am 20.5 19.5 15.5 73 3.0 W 15 20 8 11 1008.3 1008.3 0.0
18/10:30am 20.3 19.3 15.7 75 2.7 W 15 20 8 11 1008.0 1008.0 0.0
18/10:00am 20.1 18.5 15.1 73 2.9 WNW 17 20 9 11 1007.6 1007.6 0.0
18/09:30am 20.0 18.6 15.6 76 2.6 NW 17 20 9 11 1007.3 1007.3 0.0
18/09:00am 20.1 18.3 16.1 78 2.4 NNW 20 24 11 13 1007.6 1007.6 2.0
18/08:30am 19.7 18.1 16.0 79 2.2 NNW 19 22 10 12 1007.5 1007.5 2.0
18/08:00am 19.1 17.3 15.4 79 2.2 NNW 19 22 10 12 1007.4 1007.4 2.0
18/07:30am 18.6 16.7 15.8 84 1.7 N 20 26 11 14 1006.9 1006.9 2.0
18/07:00am 18.5 19.1 16.8 90 1.0 NNW 9 15 5 8 1006.6 1006.6 2.0
18/06:30am 17.0 15.1 15.7 92 0.8 NNE 20 28 11 15 1006.4 1006.4 2.0
18/06:00am 17.9 17.3 16.6 92 0.8 NNE 15 20 8 11 1006.0 1006.0 0.8
18/05:30am 17.8 18.7 16.0 89 1.1 ENE 6 9 3 5 1005.1 1005.1 0.4
18/05:00am 18.0 18.6 15.4 85 1.5 ENE 6 11 3 6 1004.8 1004.8 0.4
18/04:30am 18.7 20.0 15.2 80 2.0 ENE 2 6 1 3 1004.5 1004.5 0.0
18/04:00am 19.2 19.5 14.9 76 2.5 NNW 7 9 4 5 1004.2 1004.2 0.0
18/03:30am 19.1 19.0 15.0 77 2.4 NNW 9 11 5 6 1004.4 1004.4 0.0
18/03:00am 19.2 19.8 15.9 81 2.0 WNW 7 13 4 7 1004.4 1004.4 0.0
18/02:30am 19.4 19.3 15.9 80 2.1 NW 11 15 6 8 1004.7 1004.7 0.0
18/02:00am 19.2 18.1 15.3 78 2.3 NW 15 19 8 10 1004.5 1004.5 0.0
18/01:30am 19.4 18.7 15.3 77 2.4 NW 13 17 7 9 1004.7 1004.7 0.0
18/01:00am 19.4 19.0 15.3 77 2.4 WNW 11 13 6 7 1004.7 1004.7 0.0
18/12:30am 19.4 18.7 15.3 77 2.4 NW 13 17 7 9 1004.8 1004.8 0.0
18/12:00am 19.6 18.6 15.7 78 2.3 NW 15 19 8 10 1005.1 1005.1 0.0
 
Date/Time
WST
Temp
°C
App
Temp
°C
Dew
Point
°C
Rel
Hum
%
Delta-T
°C
Wind Press
QNH
hPa
Press
MSL
hPa
Rain since
9am
mm
Dir  Spd
km/h
Gust
km/h
Spd
kts
Gust
kts
17/11:30pm 19.7 18.4 15.8 78 2.3 NW 17 20 9 11 1005.3 1005.3 0.0
17/11:00pm 19.7 19.6 16.0 79 2.2 N 11 17 6 9 1005.5 1005.5 0.0
17/10:30pm 19.8 19.5 15.4 76 2.6 NNW 11 13 6 7 1005.9 1005.9 0.0
17/10:00pm 19.6 19.8 14.8 74 2.8 N 7 9 4 5 1005.7 1005.7 0.0
17/09:30pm 19.7 19.9 14.7 73 2.9 NNW 7 9 4 5 1005.8 1005.8 0.0
17/09:00pm 19.9 18.9 14.7 72 3.0 NNW 13 15 7 8 1006.0 1006.0 0.0
17/08:30pm 19.9 18.6 14.7 72 3.0 NNW 15 19 8 10 1006.1 1006.1 0.0
17/08:00pm 19.8 18.1 14.6 72 3.0 NW 17 20 9 11 1005.9 1005.9 0.0
17/07:30pm 20.1 18.5 14.9 72 3.0 NW 17 20 9 11 1005.8 1005.8 0.0
17/07:00pm 20.1 18.9 15.1 73 3.0 NW 15 20 8 11 1005.5 1005.5 0.0
17/06:30pm 20.2 17.5 14.6 70 3.3 NW 22 26 12 14 1005.4 1005.4 0.0
17/06:00pm 20.3 17.1 14.2 68 3.5 NW 24 28 13 15 1005.1 1005.1 0.0
17/05:30pm 20.9 18.0 15.2 70 3.4 NW 24 30 13 16 1004.6 1004.6 0.0
17/05:00pm 21.3 18.6 16.5 74 2.9 NW 26 32 14 17 1004.4 1004.4 0.0
17/04:30pm 21.1 18.2 16.1 73 3.0 NW 26 32 14 17 1004.2 1004.2 0.0
17/04:00pm 21.1 18.4 16.5 75 2.8 NNW 26 33 14 18 1004.2 1004.2 0.0
17/03:30pm 21.9 19.8 17.1 74 2.9 NNW 24 33 13 18 1004.2 1004.2 0.0
17/03:00pm 21.6 19.7 17.6 78 2.5 NNW 24 28 13 15 1004.0 1004.0 0.0
17/02:30pm 21.8 20.2 17.4 76 2.7 NNW 22 26 12 14 1004.0 1004.0 0.0
17/02:00pm 21.1 18.3 17.3 79 2.3 NW 28 33 15 18 1004.2 1004.2 0.0
17/01:30pm 21.4 19.9 17.8 80 2.2 NNW 22 32 12 17 1004.2 1004.2 0.0
17/01:00pm 21.8 21.2 18.4 81 2.1 NNW 19 22 10 12 1004.2 1004.2 0.0
17/12:30pm 21.8 21.0 18.4 81 2.1 N 20 24 11 13 1004.4 1004.4 0.0
17/12:00pm 21.1 20.3 17.9 82 2.0 N 19 24 10 13 1004.2 1004.2 0.0
17/11:30am 21.0 19.8 18.4 85 1.6 NNW 22 26 12 14 1004.4 1004.4 0.0
17/11:00am 20.3 18.3 18.2 88 1.3 N 26 30 14 16 1004.6 1004.6 0.0
17/10:30am 20.7 16.9 17.3 81 2.1 NNW 33 41 18 22 1004.6 1004.6 0.0
17/10:00am 21.2 19.9 18.2 83 1.9 NNW 22 28 12 15 1004.3 1004.3 0.0
17/09:30am 21.3 19.8 17.7 80 2.2 NNW 22 28 12 15 1004.2 1004.2 0.0
17/09:00am 20.9 19.6 18.1 84 1.7 NNW 22 26 12 14 1004.1 1004.1 0.2
17/08:30am 20.9 19.8 18.7 87 1.4 NNW 22 28 12 15 1004.0 1004.0 0.2
17/08:00am 20.7 19.6 19.4 92 0.8 NNW 24 30 13 16 1003.9 1003.9 0.2

Latest Capital City Observations: Canberra | Sydney | Melbourne | Brisbane | Adelaide | Perth | Hobart | Darwin

Other Formats:

Comma delimited format used in spreadsheet applications
http://www.bom.gov.au/fwo/IDW60901/IDW60901.94605.axf

JavaScript Object Notation format (JSON) in row-major order
http://www.bom.gov.au/fwo/IDW60901/IDW60901.94605.json